sensor_id;sensor_type;location;lat;lon;timestamp;temperature;humidity
7461;DHT22;6757;52.258;12.840;2022-12-05T00:01:26;2.50;99.90
7461;DHT22;6757;52.258;12.840;2022-12-05T00:03:57;2.50;99.90
7461;DHT22;6757;52.258;12.840;2022-12-05T00:06:27;2.50;99.90
7461;DHT22;6757;52.258;12.840;2022-12-05T00:08:55;2.50;99.90
7461;DHT22;6757;52.258;12.840;2022-12-05T00:11:24;2.50;99.90
7461;DHT22;6757;52.258;12.840;2022-12-05T00:13:53;2.50;99.90
7461;DHT22;6757;52.258;12.840;2022-12-05T00:16:23;2.50;99.90
7461;DHT22;6757;52.258;12.840;2022-12-05T00:18:51;2.50;99.90
7461;DHT22;6757;52.258;12.840;2022-12-05T00:21:22;2.50;99.90
7461;DHT22;6757;52.258;12.840;2022-12-05T00:23:53;2.50;99.90
7461;DHT22;6757;52.258;12.840;2022-12-05T00:26:21;2.50;99.90
7461;DHT22;6757;52.258;12.840;2022-12-05T00:28:49;2.50;99.90
7461;DHT22;6757;52.258;12.840;2022-12-05T00:31:19;2.50;99.90
7461;DHT22;6757;52.258;12.840;2022-12-05T00:33:47;2.50;99.90
7461;DHT22;6757;52.258;12.840;2022-12-05T00:36:17;2.50;99.90
7461;DHT22;6757;52.258;12.840;2022-12-05T00:38:46;2.50;99.90
7461;DHT22;6757;52.258;12.840;2022-12-05T00:41:16;2.50;99.90
7461;DHT22;6757;52.258;12.840;2022-12-05T00:43:44;2.50;99.90
7461;DHT22;6757;52.258;12.840;2022-12-05T00:46:13;2.50;99.90
7461;DHT22;6757;52.258;12.840;2022-12-05T00:48:42;2.50;99.90
7461;DHT22;6757;52.258;12.840;2022-12-05T00:51:11;2.50;99.90
7461;DHT22;6757;52.258;12.840;2022-12-05T00:53:39;2.50;99.90
7461;DHT22;6757;52.258;12.840;2022-12-05T00:56:10;2.50;99.90
7461;DHT22;6757;52.258;12.840;2022-12-05T00:58:39;2.50;99.90
7461;DHT22;6757;52.258;12.840;2022-12-05T01:01:07;2.50;99.90
7461;DHT22;6757;52.258;12.840;2022-12-05T01:03:34;2.50;99.90
7461;DHT22;6757;52.258;12.840;2022-12-05T01:06:02;2.50;99.90
7461;DHT22;6757;52.258;12.840;2022-12-05T01:08:31;2.50;99.90
7461;DHT22;6757;52.258;12.840;2022-12-05T01:10:58;2.50;99.90
7461;DHT22;6757;52.258;12.840;2022-12-05T01:13:27;2.50;99.90
7461;DHT22;6757;52.258;12.840;2022-12-05T01:15:54;2.50;99.90
7461;DHT22;6757;52.258;12.840;2022-12-05T01:18:22;2.60;99.90
7461;DHT22;6757;52.258;12.840;2022-12-05T01:20:49;2.50;99.90
7461;DHT22;6757;52.258;12.840;2022-12-05T01:23:17;2.60;99.90
7461;DHT22;6757;52.258;12.840;2022-12-05T01:25:49;2.60;99.90
7461;DHT22;6757;52.258;12.840;2022-12-05T01:28:17;2.60;99.90
7461;DHT22;6757;52.258;12.840;2022-12-05T01:30:47;2.60;99.90
7461;DHT22;6757;52.258;12.840;2022-12-05T01:33:15;2.60;99.90
7461;DHT22;6757;52.258;12.840;2022-12-05T01:35:43;2.60;99.90
7461;DHT22;6757;52.258;12.840;2022-12-05T01:38:10;2.60;99.90
7461;DHT22;6757;52.258;12.840;2022-12-05T01:40:38;2.60;99.90
7461;DHT22;6757;52.258;12.840;2022-12-05T01:43:13;2.60;99.90
7461;DHT22;6757;52.258;12.840;2022-12-05T01:45:42;2.60;99.90
7461;DHT22;6757;52.258;12.840;2022-12-05T01:48:15;2.60;99.90
7461;DHT22;6757;52.258;12.840;2022-12-05T01:50:45;2.60;99.90
7461;DHT22;6757;52.258;12.840;2022-12-05T01:53:13;2.60;99.90
7461;DHT22;6757;52.258;12.840;2022-12-05T01:55:41;2.60;99.90
7461;DHT22;6757;52.258;12.840;2022-12-05T01:58:08;2.60;99.90
7461;DHT22;6757;52.258;12.840;2022-12-05T02:00:38;2.60;99.90
7461;DHT22;6757;52.258;12.840;2022-12-05T02:03:07;2.60;99.90
7461;DHT22;6757;52.258;12.840;2022-12-05T02:05:37;2.60;99.90
7461;DHT22;6757;52.258;12.840;2022-12-05T02:08:07;2.60;99.90
7461;DHT22;6757;52.258;12.840;2022-12-05T02:10:38;2.60;99.90
7461;DHT22;6757;52.258;12.840;2022-12-05T02:13:17;2.60;99.90
7461;DHT22;6757;52.258;12.840;2022-12-05T02:15:55;2.60;99.90
7461;DHT22;6757;52.258;12.840;2022-12-05T02:18:38;2.60;99.90
7461;DHT22;6757;52.258;12.840;2022-12-05T02:21:34;2.60;99.90
7461;DHT22;6757;52.258;12.840;2022-12-05T02:24:26;2.60;99.90
7461;DHT22;6757;52.258;12.840;2022-12-05T02:27:26;2.70;99.90
7461;DHT22;6757;52.258;12.840;2022-12-05T02:30:09;2.60;99.90
7461;DHT22;6757;52.258;12.840;2022-12-05T02:32:55;2.70;99.90
7461;DHT22;6757;52.258;12.840;2022-12-05T02:35:40;2.60;99.90
7461;DHT22;6757;52.258;12.840;2022-12-05T02:38:17;2.70;99.90
7461;DHT22;6757;52.258;12.840;2022-12-05T02:40:55;2.70;99.90
7461;DHT22;6757;52.258;12.840;2022-12-05T02:43:31;2.70;99.90
7461;DHT22;6757;52.258;12.840;2022-12-05T02:46:05;2.70;99.90
7461;DHT22;6757;52.258;12.840;2022-12-05T02:48:35;2.70;99.90
7461;DHT22;6757;52.258;12.840;2022-12-05T02:51:04;2.70;99.90
7461;DHT22;6757;52.258;12.840;2022-12-05T02:53:34;2.70;99.90
7461;DHT22;6757;52.258;12.840;2022-12-05T02:56:04;2.70;99.90
7461;DHT22;6757;52.258;12.840;2022-12-05T02:58:33;2.70;99.90
7461;DHT22;6757;52.258;12.840;2022-12-05T03:01:03;2.70;99.90
7461;DHT22;6757;52.258;12.840;2022-12-05T03:03:32;2.70;99.90
7461;DHT22;6757;52.258;12.840;2022-12-05T03:06:02;2.70;99.90
7461;DHT22;6757;52.258;12.840;2022-12-05T03:08:34;2.70;99.90
7461;DHT22;6757;52.258;12.840;2022-12-05T03:11:03;2.70;99.90
7461;DHT22;6757;52.258;12.840;2022-12-05T03:13:34;2.70;99.90
7461;DHT22;6757;52.258;12.840;2022-12-05T03:16:10;2.70;99.90
7461;DHT22;6757;52.258;12.840;2022-12-05T03:18:42;2.70;99.90
7461;DHT22;6757;52.258;12.840;2022-12-05T03:21:18;2.70;99.90
7461;DHT22;6757;52.258;12.840;2022-12-05T03:23:51;2.70;99.90
7461;DHT22;6757;52.258;12.840;2022-12-05T03:26:31;2.70;99.90
7461;DHT22;6757;52.258;12.840;2022-12-05T03:29:18;2.70;99.90
7461;DHT22;6757;52.258;12.840;2022-12-05T03:31:56;2.70;99.90
7461;DHT22;6757;52.258;12.840;2022-12-05T03:34:44;2.70;99.90
7461;DHT22;6757;52.258;12.840;2022-12-05T03:37:20;2.70;99.90
7461;DHT22;6757;52.258;12.840;2022-12-05T03:40:02;2.70;99.90
7461;DHT22;6757;52.258;12.840;2022-12-05T03:42:34;2.80;99.90
7461;DHT22;6757;52.258;12.840;2022-12-05T03:45:05;2.80;99.90
7461;DHT22;6757;52.258;12.840;2022-12-05T03:47:41;2.80;99.90
7461;DHT22;6757;52.258;12.840;2022-12-05T03:50:18;2.80;99.90
7461;DHT22;6757;52.258;12.840;2022-12-05T03:52:51;2.80;99.90
7461;DHT22;6757;52.258;12.840;2022-12-05T03:55:22;2.80;99.90
7461;DHT22;6757;52.258;12.840;2022-12-05T03:57:54;2.80;99.90
7461;DHT22;6757;52.258;12.840;2022-12-05T04:00:23;2.80;99.90
7461;DHT22;6757;52.258;12.840;2022-12-05T04:02:54;2.80;99.90
7461;DHT22;6757;52.258;12.840;2022-12-05T04:05:29;2.80;99.90
7461;DHT22;6757;52.258;12.840;2022-12-05T04:08:01;2.80;99.90
7461;DHT22;6757;52.258;12.840;2022-12-05T04:10:33;2.80;99.90
7461;DHT22;6757;52.258;12.840;2022-12-05T04:13:15;2.80;99.90
7461;DHT22;6757;52.258;12.840;2022-12-05T04:15:48;2.80;99.90
7461;DHT22;6757;52.258;12.840;2022-12-05T04:18:43;2.80;99.90
7461;DHT22;6757;52.258;12.840;2022-12-05T04:21:14;2.80;99.90
7461;DHT22;6757;52.258;12.840;2022-12-05T04:23:59;2.80;99.90
7461;DHT22;6757;52.258;12.840;2022-12-05T04:26:47;2.80;99.90
7461;DHT22;6757;52.258;12.840;2022-12-05T04:29:26;2.80;99.90
7461;DHT22;6757;52.258;12.840;2022-12-05T04:31:58;2.80;99.90
7461;DHT22;6757;52.258;12.840;2022-12-05T04:34:33;2.80;99.90
7461;DHT22;6757;52.258;12.840;2022-12-05T04:37:03;2.80;99.90
7461;DHT22;6757;52.258;12.840;2022-12-05T04:39:36;2.80;99.90
7461;DHT22;6757;52.258;12.840;2022-12-05T04:42:09;2.80;99.90
7461;DHT22;6757;52.258;12.840;2022-12-05T04:44:42;2.90;99.90
7461;DHT22;6757;52.258;12.840;2022-12-05T04:47:12;2.80;99.90
7461;DHT22;6757;52.258;12.840;2022-12-05T04:49:42;2.80;99.90
7461;DHT22;6757;52.258;12.840;2022-12-05T04:52:11;2.80;99.90
7461;DHT22;6757;52.258;12.840;2022-12-05T04:54:43;2.80;99.90
7461;DHT22;6757;52.258;12.840;2022-12-05T04:57:16;2.80;99.90
7461;DHT22;6757;52.258;12.840;2022-12-05T04:59:45;2.90;99.90
7461;DHT22;6757;52.258;12.840;2022-12-05T05:02:17;2.90;99.90
7461;DHT22;6757;52.258;12.840;2022-12-05T05:04:51;2.90;99.90
7461;DHT22;6757;52.258;12.840;2022-12-05T05:07:19;3.00;99.90
7461;DHT22;6757;52.258;12.840;2022-12-05T05:09:46;3.00;99.90
7461;DHT22;6757;52.258;12.840;2022-12-05T05:12:13;3.10;99.90
7461;DHT22;6757;52.258;12.840;2022-12-05T05:14:40;3.20;99.90
7461;DHT22;6757;52.258;12.840;2022-12-05T05:17:07;3.20;99.90
7461;DHT22;6757;52.258;12.840;2022-12-05T05:19:34;3.20;99.90
7461;DHT22;6757;52.258;12.840;2022-12-05T05:22:02;3.20;99.90
7461;DHT22;6757;52.258;12.840;2022-12-05T05:24:29;3.20;99.90
7461;DHT22;6757;52.258;12.840;2022-12-05T05:26:56;3.20;99.90
7461;DHT22;6757;52.258;12.840;2022-12-05T05:29:23;3.20;99.90
7461;DHT22;6757;52.258;12.840;2022-12-05T05:31:50;3.20;99.90
7461;DHT22;6757;52.258;12.840;2022-12-05T05:34:17;3.20;99.90
7461;DHT22;6757;52.258;12.840;2022-12-05T05:36:44;3.20;99.90
7461;DHT22;6757;52.258;12.840;2022-12-05T05:39:13;3.20;99.90
7461;DHT22;6757;52.258;12.840;2022-12-05T05:41:41;3.20;99.90
7461;DHT22;6757;52.258;12.840;2022-12-05T05:44:09;3.20;99.90
7461;DHT22;6757;52.258;12.840;2022-12-05T05:46:37;3.20;99.90
7461;DHT22;6757;52.258;12.840;2022-12-05T05:49:05;3.30;99.90
7461;DHT22;6757;52.258;12.840;2022-12-05T05:51:32;3.30;99.90
7461;DHT22;6757;52.258;12.840;2022-12-05T05:53:59;3.30;99.90
7461;DHT22;6757;52.258;12.840;2022-12-05T05:56:28;3.30;99.90
7461;DHT22;6757;52.258;12.840;2022-12-05T05:58:57;3.30;99.90
7461;DHT22;6757;52.258;12.840;2022-12-05T06:01:25;3.20;99.90
7461;DHT22;6757;52.258;12.840;2022-12-05T06:03:53;3.20;99.90
7461;DHT22;6757;52.258;12.840;2022-12-05T06:06:21;3.20;99.90
7461;DHT22;6757;52.258;12.840;2022-12-05T06:08:48;3.20;99.90
7461;DHT22;6757;52.258;12.840;2022-12-05T06:11:17;3.20;99.90
7461;DHT22;6757;52.258;12.840;2022-12-05T06:13:46;3.10;99.90
7461;DHT22;6757;52.258;12.840;2022-12-05T06:16:14;3.10;99.90
7461;DHT22;6757;52.258;12.840;2022-12-05T06:18:42;3.10;99.90
7461;DHT22;6757;52.258;12.840;2022-12-05T06:21:10;3.20;99.90
7461;DHT22;6757;52.258;12.840;2022-12-05T06:23:38;3.20;99.90
7461;DHT22;6757;52.258;12.840;2022-12-05T06:26:09;3.10;99.90
7461;DHT22;6757;52.258;12.840;2022-12-05T06:28:37;3.10;99.90
7461;DHT22;6757;52.258;12.840;2022-12-05T06:31:07;3.10;99.90
7461;DHT22;6757;52.258;12.840;2022-12-05T06:33:35;3.10;99.90
7461;DHT22;6757;52.258;12.840;2022-12-05T06:36:03;3.10;99.90
7461;DHT22;6757;52.258;12.840;2022-12-05T06:38:31;3.10;99.90
7461;DHT22;6757;52.258;12.840;2022-12-05T06:40:58;3.10;99.90
7461;DHT22;6757;52.258;12.840;2022-12-05T06:43:26;3.10;99.90
7461;DHT22;6757;52.258;12.840;2022-12-05T06:45:53;3.10;99.90
7461;DHT22;6757;52.258;12.840;2022-12-05T06:48:21;3.10;99.90
7461;DHT22;6757;52.258;12.840;2022-12-05T06:50:49;3.10;99.90
7461;DHT22;6757;52.258;12.840;2022-12-05T06:53:17;3.10;99.90
7461;DHT22;6757;52.258;12.840;2022-12-05T06:55:53;3.10;99.90
7461;DHT22;6757;52.258;12.840;2022-12-05T06:58:21;3.10;99.90
7461;DHT22;6757;52.258;12.840;2022-12-05T07:00:47;3.10;99.90
7461;DHT22;6757;52.258;12.840;2022-12-05T07:03:33;3.10;99.90
7461;DHT22;6757;52.258;12.840;2022-12-05T07:06:01;3.10;99.90
7461;DHT22;6757;52.258;12.840;2022-12-05T07:08:28;3.10;99.90
7461;DHT22;6757;52.258;12.840;2022-12-05T07:10:55;3.10;99.90
7461;DHT22;6757;52.258;12.840;2022-12-05T07:13:22;3.10;99.90
7461;DHT22;6757;52.258;12.840;2022-12-05T07:15:49;3.10;99.90
7461;DHT22;6757;52.258;12.840;2022-12-05T07:18:17;3.10;99.90
7461;DHT22;6757;52.258;12.840;2022-12-05T07:20:54;3.10;99.90
7461;DHT22;6757;52.258;12.840;2022-12-05T07:23:22;3.10;99.90
7461;DHT22;6757;52.258;12.840;2022-12-05T07:25:49;3.10;99.90
7461;DHT22;6757;52.258;12.840;2022-12-05T07:28:16;3.10;99.90
7461;DHT22;6757;52.258;12.840;2022-12-05T07:30:43;3.10;99.90
7461;DHT22;6757;52.258;12.840;2022-12-05T07:33:10;3.10;99.90
7461;DHT22;6757;52.258;12.840;2022-12-05T07:35:37;3.10;99.90
7461;DHT22;6757;52.258;12.840;2022-12-05T07:38:05;3.10;99.90
7461;DHT22;6757;52.258;12.840;2022-12-05T07:40:32;3.10;99.90
7461;DHT22;6757;52.258;12.840;2022-12-05T07:42:59;3.10;99.90
7461;DHT22;6757;52.258;12.840;2022-12-05T07:45:26;3.10;99.90
7461;DHT22;6757;52.258;12.840;2022-12-05T07:47:53;3.10;99.90
7461;DHT22;6757;52.258;12.840;2022-12-05T07:50:20;3.10;99.90
7461;DHT22;6757;52.258;12.840;2022-12-05T07:52:47;3.10;99.90
7461;DHT22;6757;52.258;12.840;2022-12-05T07:55:15;3.10;99.90
7461;DHT22;6757;52.258;12.840;2022-12-05T07:57:42;3.10;99.90
7461;DHT22;6757;52.258;12.840;2022-12-05T08:00:10;3.10;99.90
7461;DHT22;6757;52.258;12.840;2022-12-05T08:02:38;3.10;99.90
7461;DHT22;6757;52.258;12.840;2022-12-05T08:05:05;3.10;99.90
7461;DHT22;6757;52.258;12.840;2022-12-05T08:07:33;3.10;99.90
7461;DHT22;6757;52.258;12.840;2022-12-05T08:10:00;3.10;99.90
7461;DHT22;6757;52.258;12.840;2022-12-05T08:12:28;3.10;99.90
7461;DHT22;6757;52.258;12.840;2022-12-05T08:14:55;3.10;99.90
7461;DHT22;6757;52.258;12.840;2022-12-05T08:17:22;3.20;99.90
7461;DHT22;6757;52.258;12.840;2022-12-05T08:19:49;3.20;99.90
7461;DHT22;6757;52.258;12.840;2022-12-05T08:22:16;3.20;99.90
7461;DHT22;6757;52.258;12.840;2022-12-05T08:24:43;3.20;99.90
7461;DHT22;6757;52.258;12.840;2022-12-05T08:27:10;3.20;99.90
7461;DHT22;6757;52.258;12.840;2022-12-05T08:29:38;3.20;99.90
7461;DHT22;6757;52.258;12.840;2022-12-05T08:32:05;3.20;99.90
7461;DHT22;6757;52.258;12.840;2022-12-05T08:34:32;3.20;99.90
7461;DHT22;6757;52.258;12.840;2022-12-05T08:36:59;3.20;99.90
7461;DHT22;6757;52.258;12.840;2022-12-05T08:39:26;3.20;99.90
7461;DHT22;6757;52.258;12.840;2022-12-05T08:41:52;3.20;99.90
7461;DHT22;6757;52.258;12.840;2022-12-05T08:44:19;3.20;99.90
7461;DHT22;6757;52.258;12.840;2022-12-05T08:46:49;3.20;99.90
7461;DHT22;6757;52.258;12.840;2022-12-05T08:49:16;3.30;99.90
7461;DHT22;6757;52.258;12.840;2022-12-05T08:51:44;3.30;99.90
7461;DHT22;6757;52.258;12.840;2022-12-05T08:54:11;3.30;99.90
7461;DHT22;6757;52.258;12.840;2022-12-05T08:56:38;3.30;99.90
7461;DHT22;6757;52.258;12.840;2022-12-05T08:59:06;3.30;99.90
7461;DHT22;6757;52.258;12.840;2022-12-05T09:01:33;3.30;99.90
7461;DHT22;6757;52.258;12.840;2022-12-05T09:04:04;3.30;99.90
7461;DHT22;6757;52.258;12.840;2022-12-05T09:06:33;3.30;99.90
7461;DHT22;6757;52.258;12.840;2022-12-05T09:09:03;3.30;99.90
7461;DHT22;6757;52.258;12.840;2022-12-05T09:11:33;3.30;99.90
7461;DHT22;6757;52.258;12.840;2022-12-05T09:14:02;3.30;99.90
7461;DHT22;6757;52.258;12.840;2022-12-05T09:16:31;3.30;99.90
7461;DHT22;6757;52.258;12.840;2022-12-05T09:18:59;3.30;99.90
7461;DHT22;6757;52.258;12.840;2022-12-05T09:21:29;3.30;99.90
7461;DHT22;6757;52.258;12.840;2022-12-05T09:23:57;3.30;99.90
7461;DHT22;6757;52.258;12.840;2022-12-05T09:26:26;3.30;99.90
7461;DHT22;6757;52.258;12.840;2022-12-05T09:28:54;3.30;99.90
7461;DHT22;6757;52.258;12.840;2022-12-05T09:31:23;3.30;99.90
7461;DHT22;6757;52.258;12.840;2022-12-05T09:33:51;3.30;99.90
7461;DHT22;6757;52.258;12.840;2022-12-05T09:36:20;3.30;99.90
7461;DHT22;6757;52.258;12.840;2022-12-05T09:38:50;3.30;99.90
7461;DHT22;6757;52.258;12.840;2022-12-05T09:41:27;3.30;99.90
7461;DHT22;6757;52.258;12.840;2022-12-05T09:44:23;3.30;99.90
7461;DHT22;6757;52.258;12.840;2022-12-05T09:46:58;3.30;99.90
7461;DHT22;6757;52.258;12.840;2022-12-05T09:49:27;3.30;99.90
7461;DHT22;6757;52.258;12.840;2022-12-05T09:52:40;3.30;99.90
7461;DHT22;6757;52.258;12.840;2022-12-05T09:56:03;3.30;99.90
7461;DHT22;6757;52.258;12.840;2022-12-05T09:59:25;3.30;99.90
7461;DHT22;6757;52.258;12.840;2022-12-05T10:03:31;3.40;99.90
7461;DHT22;6757;52.258;12.840;2022-12-05T10:06:07;3.40;99.90
7461;DHT22;6757;52.258;12.840;2022-12-05T10:09:50;3.40;99.90
7461;DHT22;6757;52.258;12.840;2022-12-05T10:12:50;3.40;99.90
7461;DHT22;6757;52.258;12.840;2022-12-05T10:15:33;3.40;99.90
7461;DHT22;6757;52.258;12.840;2022-12-05T10:18:23;3.50;99.90
7461;DHT22;6757;52.258;12.840;2022-12-05T10:21:13;3.50;99.90
7461;DHT22;6757;52.258;12.840;2022-12-05T10:24:19;3.50;99.90
7461;DHT22;6757;52.258;12.840;2022-12-05T10:27:05;3.50;99.90
7461;DHT22;6757;52.258;12.840;2022-12-05T10:30:02;3.50;99.90
7461;DHT22;6757;52.258;12.840;2022-12-05T10:33:08;3.60;99.90
7461;DHT22;6757;52.258;12.840;2022-12-05T10:35:49;3.60;99.90
7461;DHT22;6757;52.258;12.840;2022-12-05T10:38:34;3.60;99.90
7461;DHT22;6757;52.258;12.840;2022-12-05T10:41:16;3.60;99.90
7461;DHT22;6757;52.258;12.840;2022-12-05T10:43:58;3.60;99.90
7461;DHT22;6757;52.258;12.840;2022-12-05T10:47:01;3.60;99.90
7461;DHT22;6757;52.258;12.840;2022-12-05T10:49:36;3.60;99.90
7461;DHT22;6757;52.258;12.840;2022-12-05T10:52:24;3.60;99.90
7461;DHT22;6757;52.258;12.840;2022-12-05T10:55:06;3.60;99.90
7461;DHT22;6757;52.258;12.840;2022-12-05T10:58:12;3.60;99.90
7461;DHT22;6757;52.258;12.840;2022-12-05T11:00:58;3.70;99.90
7461;DHT22;6757;52.258;12.840;2022-12-05T11:03:37;3.70;99.90
7461;DHT22;6757;52.258;12.840;2022-12-05T11:06:33;3.70;99.90
7461;DHT22;6757;52.258;12.840;2022-12-05T11:09:18;3.70;99.90
7461;DHT22;6757;52.258;12.840;2022-12-05T11:12:34;3.70;99.90
7461;DHT22;6757;52.258;12.840;2022-12-05T11:15:27;3.70;99.90
7461;DHT22;6757;52.258;12.840;2022-12-05T11:18:31;3.70;99.90
7461;DHT22;6757;52.258;12.840;2022-12-05T11:21:23;3.70;99.90
7461;DHT22;6757;52.258;12.840;2022-12-05T11:24:24;3.70;99.90
7461;DHT22;6757;52.258;12.840;2022-12-05T11:26:56;3.70;99.90
7461;DHT22;6757;52.258;12.840;2022-12-05T11:29:43;3.70;99.90
7461;DHT22;6757;52.258;12.840;2022-12-05T11:32:24;3.80;99.90
7461;DHT22;6757;52.258;12.840;2022-12-05T11:34:57;3.80;99.90
7461;DHT22;6757;52.258;12.840;2022-12-05T11:37:33;3.80;99.90
7461;DHT22;6757;52.258;12.840;2022-12-05T11:40:12;3.80;99.90
7461;DHT22;6757;52.258;12.840;2022-12-05T11:45:47;3.80;99.90
7461;DHT22;6757;52.258;12.840;2022-12-05T11:48:30;3.80;99.90
7461;DHT22;6757;52.258;12.840;2022-12-05T11:51:18;3.80;99.90
7461;DHT22;6757;52.258;12.840;2022-12-05T11:54:19;3.80;99.90
7461;DHT22;6757;52.258;12.840;2022-12-05T11:56:58;3.80;99.90
7461;DHT22;6757;52.258;12.840;2022-12-05T12:00:04;3.80;99.90
7461;DHT22;6757;52.258;12.840;2022-12-05T12:02:48;3.80;99.90
7461;DHT22;6757;52.258;12.840;2022-12-05T12:05:38;3.80;99.90
7461;DHT22;6757;52.258;12.840;2022-12-05T12:08:16;3.80;99.90
7461;DHT22;6757;52.258;12.840;2022-12-05T12:10:56;3.80;99.90
7461;DHT22;6757;52.258;12.840;2022-12-05T12:13:47;3.80;99.90
7461;DHT22;6757;52.258;12.840;2022-12-05T12:16:32;3.80;99.90
7461;DHT22;6757;52.258;12.840;2022-12-05T12:22:15;3.90;99.90
7461;DHT22;6757;52.258;12.840;2022-12-05T12:25:02;3.80;99.90
7461;DHT22;6757;52.258;12.840;2022-12-05T12:27:49;3.90;99.90
7461;DHT22;6757;52.258;12.840;2022-12-05T12:30:23;3.90;99.90
7461;DHT22;6757;52.258;12.840;2022-12-05T12:33:00;3.90;99.90
7461;DHT22;6757;52.258;12.840;2022-12-05T12:35:38;3.90;99.90
7461;DHT22;6757;52.258;12.840;2022-12-05T12:38:27;3.90;99.90
7461;DHT22;6757;52.258;12.840;2022-12-05T12:41:04;3.90;99.90
7461;DHT22;6757;52.258;12.840;2022-12-05T12:43:45;4.00;99.90
7461;DHT22;6757;52.258;12.840;2022-12-05T12:46:28;3.90;99.90
7461;DHT22;6757;52.258;12.840;2022-12-05T12:49:22;3.90;99.90
7461;DHT22;6757;52.258;12.840;2022-12-05T12:52:01;4.00;99.90
7461;DHT22;6757;52.258;12.840;2022-12-05T12:54:53;4.00;99.90
7461;DHT22;6757;52.258;12.840;2022-12-05T12:57:31;4.00;99.90
7461;DHT22;6757;52.258;12.840;2022-12-05T13:00:12;4.00;99.90
7461;DHT22;6757;52.258;12.840;2022-12-05T13:02:48;4.00;99.90
7461;DHT22;6757;52.258;12.840;2022-12-05T13:05:22;4.00;99.90
7461;DHT22;6757;52.258;12.840;2022-12-05T13:07:55;4.00;99.90
7461;DHT22;6757;52.258;12.840;2022-12-05T13:10:29;4.00;99.90
7461;DHT22;6757;52.258;12.840;2022-12-05T13:12:59;4.00;99.90
7461;DHT22;6757;52.258;12.840;2022-12-05T13:15:33;4.00;99.90
7461;DHT22;6757;52.258;12.840;2022-12-05T13:18:06;4.00;99.90
7461;DHT22;6757;52.258;12.840;2022-12-05T13:20:38;4.00;99.90
7461;DHT22;6757;52.258;12.840;2022-12-05T13:23:06;4.10;99.90
7461;DHT22;6757;52.258;12.840;2022-12-05T13:25:38;4.00;99.90
7461;DHT22;6757;52.258;12.840;2022-12-05T13:28:19;4.10;99.90
7461;DHT22;6757;52.258;12.840;2022-12-05T13:30:53;4.00;99.90
7461;DHT22;6757;52.258;12.840;2022-12-05T13:33:32;4.00;99.90
7461;DHT22;6757;52.258;12.840;2022-12-05T13:36:08;4.00;99.90
7461;DHT22;6757;52.258;12.840;2022-12-05T13:38:59;4.00;99.90
7461;DHT22;6757;52.258;12.840;2022-12-05T13:41:47;4.00;99.90
7461;DHT22;6757;52.258;12.840;2022-12-05T13:44:36;4.00;99.90
7461;DHT22;6757;52.258;12.840;2022-12-05T13:47:18;4.00;99.90
7461;DHT22;6757;52.258;12.840;2022-12-05T13:49:50;4.00;99.90
7461;DHT22;6757;52.258;12.840;2022-12-05T13:52:22;4.00;99.90
7461;DHT22;6757;52.258;12.840;2022-12-05T13:54:55;4.00;99.90
7461;DHT22;6757;52.258;12.840;2022-12-05T13:57:44;4.00;99.90
7461;DHT22;6757;52.258;12.840;2022-12-05T14:00:36;4.00;99.90
7461;DHT22;6757;52.258;12.840;2022-12-05T14:03:14;4.00;99.90
7461;DHT22;6757;52.258;12.840;2022-12-05T14:05:51;4.00;99.90
7461;DHT22;6757;52.258;12.840;2022-12-05T14:11:26;4.00;99.90
7461;DHT22;6757;52.258;12.840;2022-12-05T14:13:53;4.00;99.90
7461;DHT22;6757;52.258;12.840;2022-12-05T14:16:44;4.00;99.90
7461;DHT22;6757;52.258;12.840;2022-12-05T14:25:29;4.00;99.90
7461;DHT22;6757;52.258;12.840;2022-12-05T14:28:14;4.00;99.90
7461;DHT22;6757;52.258;12.840;2022-12-05T14:31:00;4.10;99.90
7461;DHT22;6757;52.258;12.840;2022-12-05T14:33:37;4.00;99.90
7461;DHT22;6757;52.258;12.840;2022-12-05T14:36:11;4.10;99.90
7461;DHT22;6757;52.258;12.840;2022-12-05T14:38:41;4.10;99.90
7461;DHT22;6757;52.258;12.840;2022-12-05T14:41:13;4.10;99.90
7461;DHT22;6757;52.258;12.840;2022-12-05T14:43:42;4.10;99.90
7461;DHT22;6757;52.258;12.840;2022-12-05T14:46:15;4.10;99.90
7461;DHT22;6757;52.258;12.840;2022-12-05T14:48:47;4.10;99.90
7461;DHT22;6757;52.258;12.840;2022-12-05T14:51:43;4.10;99.90
7461;DHT22;6757;52.258;12.840;2022-12-05T14:54:14;4.10;99.90
7461;DHT22;6757;52.258;12.840;2022-12-05T14:56:43;4.00;99.90
7461;DHT22;6757;52.258;12.840;2022-12-05T14:59:22;4.00;99.90
7461;DHT22;6757;52.258;12.840;2022-12-05T15:01:55;4.00;99.90
7461;DHT22;6757;52.258;12.840;2022-12-05T15:04:29;4.00;99.90
7461;DHT22;6757;52.258;12.840;2022-12-05T15:07:02;4.00;99.90
7461;DHT22;6757;52.258;12.840;2022-12-05T15:09:52;4.00;99.90
7461;DHT22;6757;52.258;12.840;2022-12-05T15:12:22;4.00;99.90
7461;DHT22;6757;52.258;12.840;2022-12-05T15:15:04;4.00;99.90
7461;DHT22;6757;52.258;12.840;2022-12-05T15:17:42;4.00;99.90
7461;DHT22;6757;52.258;12.840;2022-12-05T15:20:16;4.00;99.90
7461;DHT22;6757;52.258;12.840;2022-12-05T15:22:49;4.00;99.90
7461;DHT22;6757;52.258;12.840;2022-12-05T15:25:24;4.00;99.90
7461;DHT22;6757;52.258;12.840;2022-12-05T15:27:57;4.00;99.90
7461;DHT22;6757;52.258;12.840;2022-12-05T15:30:27;4.30;99.90
7461;DHT22;6757;52.258;12.840;2022-12-05T15:32:55;4.50;99.90
7461;DHT22;6757;52.258;12.840;2022-12-05T15:35:23;4.60;99.90
7461;DHT22;6757;52.258;12.840;2022-12-05T15:37:55;4.60;99.90
7461;DHT22;6757;52.258;12.840;2022-12-05T15:40:24;4.50;99.90
7461;DHT22;6757;52.258;12.840;2022-12-05T15:42:53;4.60;99.90
7461;DHT22;6757;52.258;12.840;2022-12-05T15:45:24;4.70;99.90
7461;DHT22;6757;52.258;12.840;2022-12-05T15:47:53;4.70;99.90
7461;DHT22;6757;52.258;12.840;2022-12-05T15:50:28;4.70;99.90
7461;DHT22;6757;52.258;12.840;2022-12-05T15:53:01;4.60;99.90
7461;DHT22;6757;52.258;12.840;2022-12-05T15:55:34;4.60;99.90
7461;DHT22;6757;52.258;12.840;2022-12-05T15:58:07;4.50;99.90
7461;DHT22;6757;52.258;12.840;2022-12-05T16:00:40;4.40;99.90
7461;DHT22;6757;52.258;12.840;2022-12-05T16:03:12;4.40;99.90
7461;DHT22;6757;52.258;12.840;2022-12-05T16:05:47;4.30;99.90
7461;DHT22;6757;52.258;12.840;2022-12-05T16:08:17;4.20;99.90
7461;DHT22;6757;52.258;12.840;2022-12-05T16:10:45;4.20;99.90
7461;DHT22;6757;52.258;12.840;2022-12-05T16:13:15;4.20;99.90
7461;DHT22;6757;52.258;12.840;2022-12-05T16:15:47;4.10;99.90
7461;DHT22;6757;52.258;12.840;2022-12-05T16:18:24;4.10;99.90
7461;DHT22;6757;52.258;12.840;2022-12-05T16:20:53;4.10;99.90
7461;DHT22;6757;52.258;12.840;2022-12-05T16:23:25;4.00;99.90
7461;DHT22;6757;52.258;12.840;2022-12-05T16:26:09;4.00;99.90
7461;DHT22;6757;52.258;12.840;2022-12-05T16:28:55;3.90;99.90
7461;DHT22;6757;52.258;12.840;2022-12-05T16:31:23;3.90;99.90
7461;DHT22;6757;52.258;12.840;2022-12-05T16:33:59;3.90;99.90
7461;DHT22;6757;52.258;12.840;2022-12-05T16:36:28;3.90;99.90
7461;DHT22;6757;52.258;12.840;2022-12-05T16:39:03;3.90;99.90
7461;DHT22;6757;52.258;12.840;2022-12-05T16:41:33;3.80;99.90
7461;DHT22;6757;52.258;12.840;2022-12-05T16:44:01;3.80;99.90
7461;DHT22;6757;52.258;12.840;2022-12-05T16:46:43;3.80;99.90
7461;DHT22;6757;52.258;12.840;2022-12-05T16:49:20;3.80;99.90
7461;DHT22;6757;52.258;12.840;2022-12-05T16:52:00;3.80;99.90
7461;DHT22;6757;52.258;12.840;2022-12-05T16:54:30;3.70;99.90
7461;DHT22;6757;52.258;12.840;2022-12-05T16:56:58;3.70;99.90
7461;DHT22;6757;52.258;12.840;2022-12-05T16:59:30;3.70;99.90
7461;DHT22;6757;52.258;12.840;2022-12-05T17:01:58;3.70;99.90
7461;DHT22;6757;52.258;12.840;2022-12-05T17:04:26;3.70;99.90
7461;DHT22;6757;52.258;12.840;2022-12-05T17:06:53;3.70;99.90